Nashville, Tennessee
Traffic Map
Current Weather Conditions
Nashville, Tennessee
Overcast
Overcast
33°
Feels Like: 37°
Wind Chill: 33° Ceiling: 20000
Heat Index: 37° Visibility: 10mi
Dew Point: 23° Wind: 3mph
Humidity: 55% Direction: ° ()
Pressure: 30.07in Gusts: 0mph
Raw Report DataKBNA 221753Z VRB03KT 10SM SCT043 SCT055 OVC200 33/23 A3007 RMK AO2 SLP174 T03280228 10333 20239 58009
Traffic Incident Summary
Active as of:
Severity:
Category:
InformationThere was an issue retrieving the traffic information for this location. Please try a different location or try again shortly.
Advertisements
Track Severe Weather on mobile